createdAt,value
2022-08-26T00:01:55.780Z,21.28
2022-08-26T00:04:24.576Z,21.20
2022-08-26T00:06:52.056Z,21.21
2022-08-26T00:09:18.975Z,21.21
2022-08-26T00:11:46.219Z,21.09
2022-08-26T00:14:14.594Z,21.09
2022-08-26T00:16:47.176Z,21.13
2022-08-26T00:19:20.792Z,21.15
2022-08-26T00:21:49.812Z,21.25
2022-08-26T00:24:18.473Z,21.04
2022-08-26T00:26:45.769Z,20.82
2022-08-26T00:29:16.092Z,20.76
2022-08-26T00:31:45.274Z,20.65
2022-08-26T00:34:13.835Z,20.85
2022-08-26T00:36:41.030Z,20.73
2022-08-26T00:39:10.978Z,20.75
2022-08-26T00:41:40.145Z,20.57
2022-08-26T00:44:08.094Z,20.66
2022-08-26T00:46:39.640Z,20.74
2022-08-26T00:49:29.557Z,20.75
2022-08-26T00:52:01.097Z,20.91
2022-08-26T00:54:33.272Z,20.85
2022-08-26T00:57:16.354Z,20.91
2022-08-26T00:59:47.756Z,20.90
2022-08-26T01:02:20.745Z,20.57
2022-08-26T01:04:55.670Z,20.62
2022-08-26T01:07:26.444Z,20.41
2022-08-26T01:09:55.325Z,20.36
2022-08-26T01:12:23.845Z,20.25
2022-08-26T01:14:52.162Z,20.49
2022-08-26T01:17:19.135Z,20.53
2022-08-26T01:20:09.502Z,20.47
2022-08-26T01:23:10.714Z,20.44
2022-08-26T01:25:43.017Z,20.43
2022-08-26T01:28:25.561Z,20.35
2022-08-26T01:30:54.902Z,20.41
2022-08-26T01:33:45.631Z,20.57
2022-08-26T01:36:13.351Z,20.45
2022-08-26T01:38:41.659Z,20.45
2022-08-26T01:41:35.674Z,20.34
2022-08-26T01:44:06.662Z,20.37
2022-08-26T01:46:37.305Z,20.49
2022-08-26T01:49:07.834Z,20.30
2022-08-26T01:51:36.639Z,20.18
2022-08-26T01:54:06.586Z,20.21
2022-08-26T01:56:36.675Z,20.38
2022-08-26T01:59:10.673Z,20.36
2022-08-26T02:01:39.540Z,20.40
2022-08-26T02:04:27.501Z,20.26
2022-08-26T02:06:55.584Z,20.08
2022-08-26T02:09:25.188Z,20.10
2022-08-26T02:11:52.876Z,20.10
2022-08-26T02:14:33.145Z,20.21
2022-08-26T02:17:02.667Z,20.34
2022-08-26T02:19:35.708Z,20.36
2022-08-26T02:22:07.560Z,20.38
2022-08-26T02:24:49.520Z,20.34
2022-08-26T02:27:18.402Z,20.36
2022-08-26T02:29:51.347Z,20.45
2022-08-26T02:32:21.061Z,20.47
2022-08-26T02:34:47.930Z,20.34
2022-08-26T02:37:14.779Z,20.28
2022-08-26T02:39:44.701Z,20.25
2022-08-26T02:42:11.765Z,20.51
2022-08-26T02:44:38.650Z,20.56
2022-08-26T02:47:07.764Z,20.53
2022-08-26T02:49:34.894Z,20.30
2022-08-26T02:52:04.146Z,20.43
2022-08-26T02:54:31.819Z,20.27
2022-08-26T02:57:00.327Z,20.85
2022-08-26T02:59:27.228Z,21.66
2022-08-26T03:01:57.682Z,22.41
2022-08-26T03:04:25.803Z,23.00
2022-08-26T03:06:53.547Z,23.34
2022-08-26T03:09:25.250Z,23.87
2022-08-26T03:11:52.820Z,24.81
2022-08-26T03:14:19.772Z,25.32
2022-08-26T03:16:48.585Z,25.85
2022-08-26T03:19:15.532Z,25.82
2022-08-26T03:21:45.163Z,26.53
2022-08-26T03:24:15.616Z,27.16
2022-08-26T03:26:52.395Z,27.30
2022-08-26T03:29:21.346Z,27.95
2022-08-26T03:31:48.277Z,28.39
2022-08-26T03:34:16.839Z,28.56
2022-08-26T03:37:09.603Z,28.75
2022-08-26T03:39:36.643Z,29.35
2022-08-26T03:42:03.709Z,29.55
2022-08-26T03:44:30.652Z,29.81
2022-08-26T03:47:00.006Z,29.76
2022-08-26T03:49:28.988Z,29.97
2022-08-26T03:51:56.071Z,30.37
2022-08-26T03:54:22.921Z,30.19
2022-08-26T03:56:50.488Z,30.52
2022-08-26T03:59:17.594Z,31.05
2022-08-26T04:01:44.544Z,31.14
2022-08-26T04:04:15.450Z,30.99
2022-08-26T04:06:44.661Z,31.08
2022-08-26T04:09:19.797Z,31.36
2022-08-26T04:11:50.639Z,31.27
2022-08-26T04:14:20.700Z,31.37
2022-08-26T04:16:48.854Z,30.95
2022-08-26T04:19:17.068Z,31.03
2022-08-26T04:21:45.497Z,30.97
2022-08-26T04:24:14.330Z,30.85
2022-08-26T04:26:42.782Z,30.61
2022-08-26T04:29:16.995Z,30.77
2022-08-26T04:31:44.585Z,30.98
2022-08-26T04:34:11.651Z,30.80
2022-08-26T04:36:41.986Z,31.15
2022-08-26T04:39:10.850Z,30.61
2022-08-26T04:41:39.151Z,30.88
2022-08-26T04:44:07.530Z,30.44
2022-08-26T04:46:34.549Z,30.00
2022-08-26T04:49:02.719Z,30.04
2022-08-26T04:51:29.777Z,29.87
2022-08-26T04:53:58.670Z,29.41
2022-08-26T04:56:28.267Z,29.50
2022-08-26T04:58:55.656Z,29.48
2022-08-26T05:01:23.837Z,29.33
2022-08-26T05:03:51.793Z,29.21
2022-08-26T05:06:19.305Z,29.36
2022-08-26T05:08:46.896Z,29.65
2022-08-26T05:11:14.109Z,29.95
2022-08-26T05:13:41.993Z,30.07
2022-08-26T05:16:11.850Z,29.96
2022-08-26T05:18:39.453Z,29.93
2022-08-26T05:21:07.629Z,30.00
2022-08-26T05:23:37.598Z,30.00
2022-08-26T05:26:08.047Z,30.01
2022-08-26T05:28:35.140Z,29.86
2022-08-26T05:31:02.274Z,29.81
2022-08-26T05:33:29.401Z,29.92
2022-08-26T05:35:56.539Z,30.20
2022-08-26T05:38:23.855Z,30.09
2022-08-26T05:40:52.683Z,30.19
2022-08-26T05:43:21.116Z,30.21
2022-08-26T05:45:50.291Z,30.50
2022-08-26T05:48:24.145Z,30.47
2022-08-26T05:50:53.139Z,30.56
2022-08-26T05:53:22.366Z,30.70
2022-08-26T05:55:53.702Z,30.69
2022-08-26T05:58:22.377Z,31.05
2022-08-26T06:01:13.397Z,31.12
2022-08-26T06:03:45.908Z,31.09
2022-08-26T06:06:20.170Z,31.24
2022-08-26T06:08:55.471Z,31.31
2022-08-26T06:11:24.269Z,31.26
2022-08-26T06:13:53.001Z,31.64
2022-08-26T06:16:22.356Z,31.65
2022-08-26T06:18:50.822Z,31.71
2022-08-26T06:21:23.727Z,31.91
2022-08-26T06:23:53.489Z,31.87
2022-08-26T06:26:20.617Z,32.06
2022-08-26T06:28:47.596Z,32.25
2022-08-26T06:31:15.322Z,32.22
2022-08-26T06:33:44.214Z,32.32
2022-08-26T06:36:17.269Z,32.39
2022-08-26T06:38:50.413Z,32.64
2022-08-26T06:41:33.998Z,32.49
2022-08-26T06:44:02.273Z,32.65
2022-08-26T06:46:29.465Z,32.68
2022-08-26T06:48:57.460Z,32.78
2022-08-26T06:51:30.886Z,32.71
2022-08-26T06:54:01.937Z,32.89
2022-08-26T06:56:37.141Z,32.76
2022-08-26T06:59:04.877Z,32.78
2022-08-26T07:01:38.681Z,32.75
2022-08-26T07:04:11.333Z,32.62
2022-08-26T07:06:40.789Z,32.61
2022-08-26T07:09:10.475Z,32.61
2022-08-26T07:11:39.010Z,32.79
2022-08-26T07:14:07.633Z,33.08
2022-08-26T07:16:35.838Z,32.90
2022-08-26T07:19:11.239Z,33.12
2022-08-26T07:21:41.749Z,33.10
2022-08-26T07:24:10.952Z,32.97
2022-08-26T07:26:39.171Z,33.01
2022-08-26T07:29:10.721Z,33.02
2022-08-26T07:31:39.541Z,33.26
2022-08-26T07:34:11.999Z,33.02
2022-08-26T07:36:39.089Z,33.02
2022-08-26T07:39:06.917Z,33.08
2022-08-26T07:41:33.765Z,33.09
2022-08-26T07:44:04.405Z,33.14
2022-08-26T07:46:31.732Z,33.22
2022-08-26T07:48:59.138Z,33.32
2022-08-26T07:51:27.506Z,33.35
2022-08-26T07:53:55.246Z,33.33
2022-08-26T07:56:23.135Z,33.37
2022-08-26T07:58:52.957Z,33.61
2022-08-26T08:01:22.809Z,33.57
2022-08-26T08:03:50.647Z,33.65
2022-08-26T08:06:19.201Z,33.49
2022-08-26T08:08:46.414Z,33.49
2022-08-26T08:11:14.602Z,33.36
2022-08-26T08:13:41.512Z,33.64
2022-08-26T08:16:08.450Z,33.52
2022-08-26T08:18:40.818Z,33.61
2022-08-26T08:21:22.092Z,33.39
2022-08-26T08:23:53.395Z,33.52
2022-08-26T08:26:21.222Z,33.78
2022-08-26T08:28:48.344Z,34.01
2022-08-26T08:31:52.394Z,33.86
2022-08-26T08:34:10.944Z,33.39
2022-08-26T08:36:37.807Z,33.85
2022-08-26T08:39:06.507Z,33.61
2022-08-26T08:41:36.271Z,33.72
2022-08-26T08:44:08.767Z,34.00
2022-08-26T08:46:36.872Z,34.15
2022-08-26T08:49:04.753Z,34.10
2022-08-26T08:51:54.259Z,33.86
2022-08-26T08:54:22.930Z,33.46
2022-08-26T08:56:59.701Z,33.45
2022-08-26T08:59:38.475Z,33.25
2022-08-26T09:02:34.609Z,33.33
2022-08-26T09:05:15.029Z,33.30
2022-08-26T09:08:06.831Z,33.55
2022-08-26T09:10:51.053Z,33.15
2022-08-26T09:13:26.232Z,33.29
2022-08-26T09:16:06.850Z,33.65
2022-08-26T09:19:11.326Z,33.59
2022-08-26T09:21:38.466Z,33.64
2022-08-26T09:24:06.760Z,33.71
2022-08-26T09:26:39.623Z,33.60
2022-08-26T09:29:14.760Z,33.50
2022-08-26T09:31:41.830Z,32.78
2022-08-26T09:34:24.166Z,32.92
2022-08-26T09:36:55.478Z,32.62
2022-08-26T09:39:25.568Z,32.66
2022-08-26T09:42:11.026Z,32.74
2022-08-26T09:44:58.488Z,32.88
2022-08-26T09:47:40.055Z,32.95
2022-08-26T09:50:13.343Z,33.29
2022-08-26T09:53:35.173Z,33.04
2022-08-26T09:56:27.531Z,32.98
2022-08-26T09:58:58.972Z,32.72
2022-08-26T10:01:37.415Z,32.92
2022-08-26T10:04:11.892Z,32.76
2022-08-26T10:06:54.455Z,32.16
2022-08-26T10:09:40.097Z,32.74
2022-08-26T10:12:22.431Z,32.71
2022-08-26T10:15:17.714Z,32.66
2022-08-26T10:18:08.138Z,32.11
2022-08-26T10:20:50.191Z,32.42
2022-08-26T10:23:24.312Z,32.66
2022-08-26T10:26:09.223Z,33.01
2022-08-26T10:28:52.648Z,32.78
2022-08-26T10:31:27.520Z,32.86
2022-08-26T10:33:58.888Z,32.65
2022-08-26T10:36:39.315Z,32.48
2022-08-26T10:40:03.952Z,32.73
2022-08-26T10:42:37.556Z,32.43
2022-08-26T10:46:04.955Z,32.90
2022-08-26T10:52:33.990Z,32.10
2022-08-26T10:55:14.864Z,32.24
2022-08-26T10:57:59.445Z,32.04
2022-08-26T11:00:39.814Z,32.26
2022-08-26T11:03:45.592Z,32.06
2022-08-26T11:06:18.757Z,32.00
2022-08-26T11:09:01.899Z,32.12
2022-08-26T11:11:53.121Z,32.36
2022-08-26T11:14:28.465Z,32.61
2022-08-26T11:16:59.531Z,32.22
2022-08-26T11:20:02.635Z,32.29
2022-08-26T11:22:37.964Z,32.28
2022-08-26T11:25:51.963Z,32.30
2022-08-26T11:28:44.284Z,32.48
2022-08-26T11:31:27.977Z,32.42
2022-08-26T11:34:00.883Z,31.86
2022-08-26T11:36:37.008Z,32.13
2022-08-26T11:39:50.340Z,32.47
2022-08-26T11:42:29.412Z,32.63
2022-08-26T11:44:58.286Z,32.69
2022-08-26T11:47:30.606Z,32.52
2022-08-26T11:50:18.026Z,32.13
2022-08-26T11:53:00.016Z,32.28
2022-08-26T11:55:27.549Z,32.64
2022-08-26T11:57:57.668Z,32.44
2022-08-26T12:00:31.405Z,32.12
2022-08-26T12:03:23.053Z,32.24
2022-08-26T12:05:52.724Z,32.25
2022-08-26T12:08:28.125Z,32.25
2022-08-26T12:11:17.975Z,32.25
2022-08-26T12:14:14.972Z,32.11
2022-08-26T12:16:43.675Z,32.15
2022-08-26T12:19:57.783Z,32.12
2022-08-26T12:22:48.177Z,31.86
2022-08-26T12:25:22.775Z,32.10
2022-08-26T12:27:53.790Z,32.02
2022-08-26T12:30:26.290Z,31.78
2022-08-26T12:33:22.529Z,31.89
2022-08-26T12:35:56.388Z,31.84
2022-08-26T12:38:29.966Z,31.88
2022-08-26T12:40:57.095Z,31.91
2022-08-26T12:43:43.385Z,31.73
2022-08-26T12:46:13.914Z,31.88
2022-08-26T12:48:43.670Z,31.55
2022-08-26T12:51:26.474Z,31.51
2022-08-26T12:53:54.751Z,31.75
2022-08-26T12:56:35.563Z,31.86
2022-08-26T12:59:25.306Z,31.71
2022-08-26T13:01:57.056Z,31.73
2022-08-26T13:04:32.962Z,31.77
2022-08-26T13:07:19.987Z,31.94
2022-08-26T13:09:46.951Z,31.48
2022-08-26T13:12:26.194Z,31.48
2022-08-26T13:14:53.280Z,31.85
2022-08-26T13:17:23.084Z,31.78
2022-08-26T13:19:49.969Z,31.51
2022-08-26T13:22:19.992Z,31.66
2022-08-26T13:24:46.940Z,31.66
2022-08-26T13:27:15.079Z,31.82
2022-08-26T13:29:42.057Z,31.54
2022-08-26T13:32:21.482Z,31.40
2022-08-26T13:34:53.876Z,31.15
2022-08-26T13:37:20.811Z,31.11
2022-08-26T13:39:47.928Z,31.30
2022-08-26T13:42:14.829Z,31.47
2022-08-26T13:44:41.649Z,31.32
2022-08-26T13:47:08.486Z,31.15
2022-08-26T13:49:35.370Z,31.26
2022-08-26T13:53:43.728Z,31.40
2022-08-26T13:56:20.134Z,31.32
2022-08-26T13:58:47.459Z,31.14
2022-08-26T14:01:17.172Z,31.01
2022-08-26T14:03:44.389Z,30.98
2022-08-26T14:06:11.936Z,30.91
2022-08-26T14:08:40.269Z,30.84
2022-08-26T14:11:07.636Z,30.99
2022-08-26T14:13:35.196Z,30.84
2022-08-26T14:16:10.458Z,30.87
2022-08-26T14:18:43.654Z,30.84
2022-08-26T14:21:14.133Z,31.04
2022-08-26T14:23:41.027Z,30.49
2022-08-26T14:26:08.256Z,30.81
2022-08-26T14:28:35.926Z,30.70
2022-08-26T14:31:04.373Z,30.64
2022-08-26T14:33:34.182Z,30.64
2022-08-26T14:36:01.392Z,30.56
2022-08-26T14:38:55.152Z,30.65
2022-08-26T14:41:23.242Z,30.23
2022-08-26T14:43:57.841Z,30.09
2022-08-26T14:46:26.355Z,30.17
2022-08-26T14:48:53.185Z,30.16
2022-08-26T14:51:23.814Z,30.15
2022-08-26T14:53:52.298Z,30.06
2022-08-26T14:56:19.543Z,29.98
2022-08-26T14:58:46.781Z,29.80
2022-08-26T15:01:13.648Z,29.48
2022-08-26T15:03:40.519Z,29.59
2022-08-26T15:06:08.767Z,29.64
2022-08-26T15:08:35.586Z,29.49
2022-08-26T15:11:03.868Z,29.20
2022-08-26T15:13:30.787Z,29.25
2022-08-26T15:15:57.805Z,29.09
2022-08-26T15:18:24.671Z,29.22
2022-08-26T15:20:51.510Z,29.03
2022-08-26T15:23:18.337Z,28.99
2022-08-26T15:25:45.548Z,28.91
2022-08-26T15:28:12.511Z,28.90
2022-08-26T15:30:39.404Z,28.99
2022-08-26T15:33:06.423Z,28.84
2022-08-26T15:35:43.044Z,28.56
2022-08-26T15:38:10.653Z,28.66
2022-08-26T15:40:38.027Z,28.42
2022-08-26T15:43:18.401Z,28.42
2022-08-26T15:45:52.074Z,28.20
2022-08-26T15:48:18.934Z,28.16
2022-08-26T15:50:53.388Z,28.08
2022-08-26T15:53:20.937Z,28.13
2022-08-26T15:55:48.528Z,27.85
2022-08-26T15:58:16.886Z,27.80
2022-08-26T16:00:44.257Z,27.87
2022-08-26T16:03:11.185Z,27.66
2022-08-26T16:05:42.944Z,27.70
2022-08-26T16:08:10.999Z,27.57
2022-08-26T16:10:44.519Z,27.39
2022-08-26T16:13:39.525Z,27.46
2022-08-26T16:16:08.152Z,27.31
2022-08-26T16:18:35.123Z,27.28
2022-08-26T16:21:13.342Z,27.19
2022-08-26T16:23:44.920Z,27.20
2022-08-26T16:26:18.713Z,26.99
2022-08-26T16:28:56.371Z,26.79
2022-08-26T16:31:24.025Z,26.81
2022-08-26T16:34:14.201Z,26.96
2022-08-26T16:36:41.138Z,26.67
2022-08-26T16:39:08.990Z,26.52
2022-08-26T16:41:36.385Z,26.54
2022-08-26T16:44:09.084Z,26.54
2022-08-26T16:46:36.558Z,26.40
2022-08-26T16:49:03.596Z,26.12
2022-08-26T16:51:30.678Z,25.90
2022-08-26T16:53:58.665Z,25.74
2022-08-26T16:56:34.133Z,25.54
2022-08-26T16:59:04.487Z,25.65
2022-08-26T17:01:34.024Z,25.73
2022-08-26T17:04:00.902Z,25.74
2022-08-26T17:06:36.334Z,25.69
2022-08-26T17:09:03.480Z,25.59
2022-08-26T17:11:30.748Z,25.50
2022-08-26T17:13:57.742Z,25.47
2022-08-26T17:16:27.416Z,25.33
2022-08-26T17:18:59.064Z,25.34
2022-08-26T17:21:27.792Z,25.34
2022-08-26T17:23:55.241Z,25.22
2022-08-26T17:26:22.614Z,25.19
2022-08-26T17:28:50.366Z,25.12
2022-08-26T17:31:21.462Z,25.06
2022-08-26T17:33:53.886Z,24.98
2022-08-26T17:36:51.271Z,24.99
2022-08-26T17:39:19.094Z,24.86
2022-08-26T17:41:47.061Z,24.74
2022-08-26T17:44:13.988Z,24.80
2022-08-26T17:46:48.292Z,24.82
2022-08-26T17:49:15.377Z,24.63
2022-08-26T17:51:42.225Z,24.57
2022-08-26T17:54:09.181Z,24.65
2022-08-26T17:56:35.993Z,24.68
2022-08-26T17:59:04.223Z,24.64
2022-08-26T18:01:31.817Z,24.54
2022-08-26T18:04:00.609Z,24.51
2022-08-26T18:06:30.445Z,24.57
2022-08-26T18:08:58.118Z,24.59
2022-08-26T18:11:25.380Z,24.66
2022-08-26T18:13:52.414Z,24.63
2022-08-26T18:16:20.254Z,24.59
2022-08-26T18:18:48.587Z,24.51
2022-08-26T18:21:18.716Z,24.48
2022-08-26T18:23:47.016Z,24.34
2022-08-26T18:26:38.670Z,24.41
2022-08-26T18:29:07.738Z,24.32
2022-08-26T18:31:34.943Z,24.13
2022-08-26T18:34:04.521Z,24.05
2022-08-26T18:36:34.428Z,23.88
2022-08-26T18:39:03.321Z,24.04
2022-08-26T18:41:33.257Z,24.01
2022-08-26T18:44:03.817Z,24.12
2022-08-26T18:46:30.982Z,23.99
2022-08-26T18:48:58.019Z,23.94
2022-08-26T18:51:29.223Z,23.94
2022-08-26T18:53:56.851Z,23.95
2022-08-26T18:56:24.158Z,23.79
2022-08-26T18:58:51.216Z,23.77
2022-08-26T19:01:19.294Z,23.80
2022-08-26T19:04:15.302Z,23.69
2022-08-26T19:06:47.450Z,23.70
2022-08-26T19:09:18.947Z,23.61
2022-08-26T19:11:49.871Z,23.61
2022-08-26T19:14:17.078Z,23.50
2022-08-26T19:16:50.002Z,23.41
2022-08-26T19:19:21.939Z,23.39
2022-08-26T19:21:48.883Z,23.26
2022-08-26T19:24:21.049Z,23.30
2022-08-26T19:26:58.848Z,23.42
2022-08-26T19:29:29.422Z,23.31
2022-08-26T19:31:56.673Z,23.23
2022-08-26T19:34:30.265Z,23.12
2022-08-26T19:36:57.654Z,23.20
2022-08-26T19:39:25.735Z,23.19
2022-08-26T19:41:52.781Z,22.94
2022-08-26T19:44:26.215Z,23.04
2022-08-26T19:46:56.452Z,22.91
2022-08-26T19:49:23.301Z,22.88
2022-08-26T19:52:00.299Z,22.94
2022-08-26T19:54:27.329Z,22.91
2022-08-26T19:56:54.201Z,22.84
2022-08-26T19:59:21.918Z,22.72
2022-08-26T20:02:00.571Z,22.59
2022-08-26T20:04:31.206Z,22.61
2022-08-26T20:07:00.326Z,22.58
2022-08-26T20:09:28.685Z,22.71
2022-08-26T20:11:56.884Z,22.71
2022-08-26T20:14:25.819Z,22.70
2022-08-26T20:16:53.036Z,22.54
2022-08-26T20:19:19.947Z,22.49
2022-08-26T20:21:46.809Z,22.45
2022-08-26T20:24:18.742Z,22.41
2022-08-26T20:26:46.058Z,22.37
2022-08-26T20:29:19.086Z,22.23
2022-08-26T20:31:47.682Z,22.36
2022-08-26T20:34:17.209Z,22.32
2022-08-26T20:36:45.880Z,22.22
2022-08-26T20:39:14.596Z,22.04
2022-08-26T20:41:42.040Z,21.99
2022-08-26T20:46:36.724Z,21.85
2022-08-26T20:49:05.969Z,21.87
2022-08-26T20:51:35.347Z,21.67
2022-08-26T20:54:02.647Z,21.74
2022-08-26T20:56:29.494Z,21.51
2022-08-26T20:59:02.754Z,21.51
2022-08-26T21:01:31.739Z,21.55
2022-08-26T21:03:58.551Z,21.49
2022-08-26T21:06:25.561Z,21.43
2022-08-26T21:08:53.530Z,21.40
2022-08-26T21:11:21.605Z,21.38
2022-08-26T21:14:04.466Z,21.31
2022-08-26T21:16:40.149Z,21.39
2022-08-26T21:19:10.380Z,21.31
2022-08-26T21:21:37.962Z,21.39
2022-08-26T21:24:05.467Z,21.33
2022-08-26T21:26:32.368Z,21.36
2022-08-26T21:29:00.866Z,21.41
2022-08-26T21:31:27.849Z,21.43
2022-08-26T21:33:54.728Z,21.35
2022-08-26T21:36:21.581Z,21.35
2022-08-26T21:38:48.451Z,21.26
2022-08-26T21:41:19.795Z,21.25
2022-08-26T21:43:48.668Z,21.25
2022-08-26T21:46:18.644Z,21.18
2022-08-26T21:48:51.594Z,21.22
2022-08-26T21:51:21.182Z,21.10
2022-08-26T21:53:48.875Z,21.08
2022-08-26T21:56:18.670Z,20.89
2022-08-26T21:58:46.241Z,20.96
2022-08-26T22:01:16.179Z,20.95
2022-08-26T22:03:43.623Z,20.77
2022-08-26T22:06:19.976Z,20.78
2022-08-26T22:08:47.177Z,20.75
2022-08-26T22:11:14.688Z,20.80
2022-08-26T22:13:43.302Z,20.74
2022-08-26T22:16:10.949Z,20.66
2022-08-26T22:18:38.476Z,20.84
2022-08-26T22:21:08.606Z,20.91
2022-08-26T22:23:37.203Z,20.82
2022-08-26T22:26:06.197Z,20.90
2022-08-26T22:28:33.563Z,20.93
2022-08-26T22:31:00.504Z,20.89
2022-08-26T22:33:28.638Z,20.87
2022-08-26T22:35:56.075Z,20.98
2022-08-26T22:38:23.322Z,21.02
2022-08-26T22:40:53.021Z,21.07
2022-08-26T22:43:19.984Z,21.16
2022-08-26T22:45:48.529Z,21.10
2022-08-26T22:48:18.416Z,21.18
2022-08-26T22:50:46.873Z,21.09
2022-08-26T22:53:16.061Z,21.05
2022-08-26T22:55:43.655Z,21.26
2022-08-26T22:58:12.080Z,20.89
2022-08-26T23:00:39.345Z,21.04
2022-08-26T23:03:07.920Z,20.91
2022-08-26T23:05:35.358Z,21.00
2022-08-26T23:08:03.444Z,20.97
2022-08-26T23:10:30.508Z,20.74
2022-08-26T23:12:57.503Z,21.03
2022-08-26T23:15:24.540Z,20.94
2022-08-26T23:17:58.845Z,20.86
2022-08-26T23:20:28.266Z,20.68
2022-08-26T23:22:56.004Z,20.73
2022-08-26T23:25:26.555Z,20.81
2022-08-26T23:27:53.425Z,20.79
2022-08-26T23:30:27.421Z,20.57
2022-08-26T23:32:54.383Z,20.78
2022-08-26T23:35:21.876Z,20.74
2022-08-26T23:37:51.085Z,20.44
2022-08-26T23:40:22.556Z,20.61
2022-08-26T23:42:49.565Z,20.73
2022-08-26T23:45:16.390Z,20.70
2022-08-26T23:47:43.302Z,20.67
2022-08-26T23:50:10.579Z,20.69
2022-08-26T23:52:37.499Z,20.65
2022-08-26T23:55:05.173Z,20.65
2022-08-26T23:57:33.165Z,20.57
